createdAt,value
2023-05-11T00:01:28.739Z,13.60
2023-05-11T00:03:56.387Z,13.18
2023-05-11T00:06:23.677Z,12.45
2023-05-11T00:08:50.794Z,14.85
2023-05-11T00:11:18.759Z,13.93
2023-05-11T00:13:46.172Z,14.90
2023-05-11T00:16:13.426Z,16.08
2023-05-11T00:18:40.707Z,16.52
2023-05-11T00:21:08.056Z,11.90
2023-05-11T00:23:35.373Z,18.17
2023-05-11T00:26:02.497Z,14.18
2023-05-11T00:28:29.628Z,12.43
2023-05-11T00:30:57.584Z,12.95
2023-05-11T00:33:24.772Z,13.03
2023-05-11T00:35:52.086Z,12.50
2023-05-11T00:38:19.163Z,11.45
2023-05-11T00:40:46.382Z,11.60
2023-05-11T00:43:13.571Z,12.00
2023-05-11T00:45:40.689Z,10.60
2023-05-11T00:48:08.653Z,10.27
2023-05-11T00:50:36.348Z,10.03
2023-05-11T00:53:03.592Z,9.83
2023-05-11T00:55:30.792Z,11.20
2023-05-11T00:57:57.923Z,11.23
2023-05-11T01:00:25.046Z,11.93
2023-05-11T01:02:52.476Z,11.80
2023-05-11T01:05:19.946Z,12.13
2023-05-11T01:07:50.033Z,11.57
2023-05-11T01:10:20.593Z,13.13
2023-05-11T01:12:48.139Z,13.20
2023-05-11T01:15:18.829Z,14.67
2023-05-11T01:17:46.033Z,14.30
2023-05-11T01:20:17.475Z,13.07
2023-05-11T01:22:53.965Z,13.53
2023-05-11T01:25:39.095Z,12.93
2023-05-11T01:28:21.528Z,13.53
2023-05-11T01:31:03.146Z,13.60
2023-05-11T01:33:32.728Z,14.57
2023-05-11T01:36:02.221Z,13.67
2023-05-11T01:38:29.836Z,13.50
2023-05-11T01:40:57.386Z,13.33
2023-05-11T01:43:24.899Z,12.87
2023-05-11T01:45:52.018Z,13.50
2023-05-11T01:48:20.241Z,13.70
2023-05-11T01:50:47.600Z,14.10
2023-05-11T01:53:14.770Z,14.67
2023-05-11T01:55:41.924Z,21.93
2023-05-11T01:58:09.508Z,21.10
2023-05-11T02:00:36.612Z,20.70
2023-05-11T02:03:04.500Z,19.57
2023-05-11T02:05:32.195Z,21.13
2023-05-11T02:07:59.400Z,21.13
2023-05-11T02:10:26.789Z,19.97
2023-05-11T02:12:53.898Z,20.87
2023-05-11T02:15:21.846Z,21.70
2023-05-11T02:17:49.017Z,26.13
2023-05-11T02:20:16.881Z,25.43
2023-05-11T02:22:44.226Z,20.93
2023-05-11T02:25:11.435Z,21.53
2023-05-11T02:27:38.788Z,21.97
2023-05-11T02:30:08.405Z,18.30
2023-05-11T02:32:36.017Z,18.13
2023-05-11T02:35:06.322Z,17.70
2023-05-11T02:37:34.321Z,17.33
2023-05-11T02:40:06.528Z,17.13
2023-05-11T02:42:36.173Z,19.27
2023-05-11T02:45:04.990Z,19.87
2023-05-11T02:47:33.270Z,23.97
2023-05-11T02:50:02.282Z,24.40
2023-05-11T02:52:29.401Z,23.00
2023-05-11T02:54:56.784Z,28.33
2023-05-11T02:57:24.161Z,33.17
2023-05-11T02:59:51.252Z,28.73
2023-05-11T03:02:18.647Z,26.43
2023-05-11T03:04:46.028Z,30.47
2023-05-11T03:07:13.110Z,28.13
2023-05-11T03:09:40.302Z,29.10
2023-05-11T03:12:07.442Z,26.73
2023-05-11T03:14:35.487Z,28.00
2023-05-11T03:17:02.814Z,28.43
2023-05-11T03:19:29.946Z,27.52
2023-05-11T03:21:57.134Z,25.77
2023-05-11T03:24:24.379Z,26.20
2023-05-11T03:26:51.530Z,26.37
2023-05-11T03:29:18.666Z,25.93
2023-05-11T03:31:46.123Z,25.77
2023-05-11T03:34:13.967Z,24.27
2023-05-11T03:36:41.237Z,23.90
2023-05-11T03:39:09.360Z,24.77
2023-05-11T03:41:36.483Z,25.60
2023-05-11T03:44:04.083Z,23.93
2023-05-11T03:46:31.430Z,24.43
2023-05-11T03:48:58.654Z,24.00
2023-05-11T03:51:26.083Z,23.47
2023-05-11T03:53:53.187Z,21.77
2023-05-11T03:56:21.575Z,20.60
2023-05-11T03:58:48.681Z,22.03
2023-05-11T04:01:15.952Z,21.87
2023-05-11T04:03:49.771Z,20.37
2023-05-11T04:06:17.520Z,22.77
2023-05-11T04:08:44.739Z,25.60
2023-05-11T04:11:11.869Z,24.17
2023-05-11T04:13:39.128Z,24.53
2023-05-11T04:16:06.594Z,23.47
2023-05-11T04:18:33.755Z,26.00
2023-05-11T04:21:01.409Z,28.70
2023-05-11T04:23:28.538Z,25.03
2023-05-11T04:25:55.853Z,24.87
2023-05-11T04:28:23.955Z,22.83
2023-05-11T04:30:55.067Z,23.47
2023-05-11T04:33:22.240Z,22.53
2023-05-11T04:35:52.564Z,22.17
2023-05-11T04:38:22.904Z,22.27
2023-05-11T04:40:50.665Z,15.90
2023-05-11T04:43:18.276Z,17.47
2023-05-11T04:45:49.319Z,14.30
2023-05-11T04:48:19.521Z,12.03
2023-05-11T04:50:47.808Z,12.37
2023-05-11T04:53:15.023Z,13.73
2023-05-11T04:55:42.122Z,15.00
2023-05-11T04:58:09.270Z,14.70
2023-05-11T05:00:36.639Z,13.17
2023-05-11T05:03:03.902Z,13.93
2023-05-11T05:05:31.145Z,12.98
2023-05-11T05:07:58.259Z,14.98
2023-05-11T05:10:25.424Z,15.52
2023-05-11T05:12:52.566Z,15.45
2023-05-11T05:15:19.770Z,14.02
2023-05-11T05:17:46.940Z,12.27
2023-05-11T05:20:14.163Z,12.30
2023-05-11T05:22:41.775Z,10.60
2023-05-11T05:25:09.236Z,10.80
2023-05-11T05:27:36.396Z,10.50
2023-05-11T05:30:03.572Z,8.73
2023-05-11T05:32:30.684Z,7.93
2023-05-11T05:34:57.859Z,8.10
2023-05-11T05:37:25.070Z,8.48
2023-05-11T05:39:52.170Z,7.75
2023-05-11T05:42:19.309Z,7.65
2023-05-11T05:44:46.452Z,6.45
2023-05-11T05:47:13.549Z,6.30
2023-05-11T05:49:40.812Z,6.03
2023-05-11T05:52:08.028Z,5.28
2023-05-11T05:54:35.232Z,4.68
2023-05-11T05:57:02.470Z,4.13
2023-05-11T05:59:30.052Z,4.32
2023-05-11T06:01:57.184Z,3.72
2023-05-11T06:04:24.427Z,4.15
2023-05-11T06:06:51.968Z,4.15
2023-05-11T06:09:19.092Z,4.22
2023-05-11T06:11:46.438Z,4.85
2023-05-11T06:14:13.552Z,3.67
2023-05-11T06:16:40.787Z,3.78
2023-05-11T06:19:09.127Z,4.60
2023-05-11T06:21:36.460Z,4.30
2023-05-11T06:24:03.662Z,3.88
2023-05-11T06:26:30.791Z,3.78
2023-05-11T06:28:57.910Z,3.75
2023-05-11T06:31:25.147Z,3.95
2023-05-11T06:33:52.384Z,4.40
2023-05-11T06:36:19.502Z,4.75
2023-05-11T06:38:46.642Z,4.45
2023-05-11T06:41:14.105Z,3.60
2023-05-11T06:43:41.272Z,3.42
2023-05-11T06:46:08.443Z,3.85
2023-05-11T06:48:35.633Z,3.70
2023-05-11T06:51:02.748Z,3.97
2023-05-11T06:53:29.864Z,3.88
2023-05-11T06:55:57.133Z,4.47
2023-05-11T06:58:24.216Z,4.93
2023-05-11T07:00:51.364Z,4.97
2023-05-11T07:03:18.577Z,4.35
2023-05-11T07:05:45.745Z,5.50
2023-05-11T07:08:12.922Z,5.22
2023-05-11T07:10:41.629Z,5.15
2023-05-11T07:13:08.747Z,5.60
2023-05-11T07:15:35.893Z,4.70
2023-05-11T07:18:03.074Z,5.00
2023-05-11T07:20:30.385Z,5.15
2023-05-11T07:23:00.473Z,5.47
2023-05-11T07:25:28.094Z,5.18
2023-05-11T07:27:55.756Z,4.88
2023-05-11T07:30:22.996Z,3.75
2023-05-11T07:32:50.471Z,4.05
2023-05-11T07:35:17.641Z,3.30
2023-05-11T07:37:46.348Z,3.60
2023-05-11T07:40:13.487Z,3.35
2023-05-11T07:42:40.601Z,3.22
2023-05-11T07:45:07.956Z,3.17
2023-05-11T07:47:36.952Z,3.00
2023-05-11T07:50:04.331Z,2.60
2023-05-11T07:52:31.591Z,2.42
2023-05-11T07:54:58.772Z,2.60
2023-05-11T07:57:25.975Z,2.00
2023-05-11T07:59:53.123Z,2.13
2023-05-11T08:02:20.308Z,2.00
2023-05-11T08:04:47.474Z,1.92
2023-05-11T08:07:14.875Z,1.70
2023-05-11T08:09:41.988Z,1.80
2023-05-11T08:12:09.742Z,1.83
2023-05-11T08:14:37.688Z,1.60
2023-05-11T08:17:05.685Z,1.60
2023-05-11T08:19:32.852Z,1.45
2023-05-11T08:22:01.013Z,1.77
2023-05-11T08:24:28.175Z,1.65
2023-05-11T08:26:55.352Z,1.73
2023-05-11T08:29:22.501Z,1.88
2023-05-11T08:31:50.436Z,1.80
2023-05-11T08:34:20.115Z,1.65
2023-05-11T08:36:47.656Z,1.60
2023-05-11T08:39:21.605Z,1.60
2023-05-11T08:42:00.227Z,1.55
2023-05-11T08:44:27.507Z,1.60
2023-05-11T08:47:05.939Z,1.85
2023-05-11T08:49:41.870Z,2.22
2023-05-11T08:52:08.957Z,2.10
2023-05-11T08:54:36.139Z,2.55
2023-05-11T08:57:03.345Z,1.85
2023-05-11T08:59:31.231Z,1.90
2023-05-11T09:01:58.390Z,2.40
2023-05-11T09:04:25.649Z,2.05
2023-05-11T09:06:52.773Z,2.20
2023-05-11T09:09:19.886Z,1.70
2023-05-11T09:11:47.006Z,1.80
2023-05-11T09:14:14.232Z,2.50
2023-05-11T09:16:41.746Z,2.80
2023-05-11T09:19:09.675Z,2.25
2023-05-11T09:21:37.470Z,1.83
2023-05-11T09:24:04.648Z,1.88
2023-05-11T09:26:32.384Z,1.98
2023-05-11T09:31:36.002Z,1.80
2023-05-11T09:34:15.714Z,1.73
2023-05-11T09:36:46.533Z,1.77
2023-05-11T09:39:16.188Z,1.65
2023-05-11T09:41:43.900Z,1.60
2023-05-11T09:44:15.556Z,1.73
2023-05-11T09:46:44.648Z,1.80
2023-05-11T09:49:12.094Z,1.67
2023-05-11T09:51:40.642Z,1.50
2023-05-11T09:54:20.642Z,1.50
2023-05-11T09:56:48.531Z,1.58
2023-05-11T09:59:16.036Z,1.58
2023-05-11T10:01:43.233Z,1.70
2023-05-11T10:04:23.117Z,1.48
2023-05-11T10:06:53.424Z,1.52
2023-05-11T10:09:24.442Z,1.60
2023-05-11T10:11:51.559Z,1.58
2023-05-11T10:14:18.732Z,1.25
2023-05-11T10:16:46.508Z,1.10
2023-05-11T10:19:14.050Z,1.23
2023-05-11T10:21:41.272Z,1.98
2023-05-11T10:24:08.692Z,1.33
2023-05-11T10:26:35.900Z,1.70
2023-05-11T10:29:03.175Z,1.60
2023-05-11T10:31:30.407Z,1.58
2023-05-11T10:33:57.855Z,1.30
2023-05-11T10:36:26.224Z,1.60
2023-05-11T10:38:53.384Z,2.45
2023-05-11T10:41:20.491Z,1.50
2023-05-11T10:43:51.595Z,1.73
2023-05-11T10:46:37.619Z,1.75
2023-05-11T10:49:08.057Z,1.70
2023-05-11T10:51:35.204Z,1.50
2023-05-11T10:54:05.142Z,1.45
2023-05-11T10:56:35.447Z,1.63
2023-05-11T10:59:21.925Z,1.55
2023-05-11T11:01:52.252Z,1.40
2023-05-11T11:04:20.516Z,1.70
2023-05-11T11:06:47.802Z,1.80
2023-05-11T11:09:15.896Z,1.70
2023-05-11T11:11:46.301Z,1.50
2023-05-11T11:14:14.366Z,1.80
2023-05-11T11:16:42.431Z,1.80
2023-05-11T11:19:28.530Z,1.50
2023-05-11T11:21:56.835Z,1.60
2023-05-11T11:24:39.422Z,1.70
2023-05-11T11:27:06.836Z,1.98
2023-05-11T11:29:35.076Z,1.30
2023-05-11T11:32:20.501Z,1.63
2023-05-11T11:34:47.965Z,1.70
2023-05-11T11:37:18.233Z,1.27
2023-05-11T11:39:45.342Z,1.25
2023-05-11T11:42:16.021Z,3.40
2023-05-11T11:44:44.203Z,1.40
2023-05-11T11:47:17.901Z,1.15
2023-05-11T11:49:45.984Z,1.40
2023-05-11T11:52:13.709Z,1.10
2023-05-11T11:54:41.365Z,1.25
2023-05-11T11:57:38.070Z,1.17
2023-05-11T12:00:11.462Z,1.33
2023-05-11T12:02:42.462Z,1.20
2023-05-11T12:05:19.861Z,1.50
2023-05-11T12:07:49.649Z,1.40
2023-05-11T12:10:17.798Z,1.60
2023-05-11T12:12:48.597Z,1.50
2023-05-11T12:15:28.584Z,1.30
2023-05-11T12:17:55.992Z,1.08
2023-05-11T12:20:23.454Z,1.50
2023-05-11T12:22:50.734Z,1.27
2023-05-11T12:25:18.650Z,1.20
2023-05-11T12:27:49.602Z,1.30
2023-05-11T12:30:20.772Z,1.20
2023-05-11T12:32:47.993Z,1.15
2023-05-11T12:35:16.460Z,1.20
2023-05-11T12:37:44.164Z,1.23
2023-05-11T12:40:11.537Z,1.10
2023-05-11T12:42:38.645Z,1.40
2023-05-11T12:45:06.118Z,1.40
2023-05-11T12:47:33.275Z,1.50
2023-05-11T12:50:00.545Z,1.27
2023-05-11T12:52:27.719Z,1.90
2023-05-11T12:55:00.366Z,1.55
2023-05-11T12:57:28.667Z,1.75
2023-05-11T13:00:14.833Z,1.52
2023-05-11T13:02:47.875Z,1.40
2023-05-11T13:05:15.256Z,1.55
2023-05-11T13:07:44.012Z,1.70
2023-05-11T13:10:13.007Z,1.52
2023-05-11T13:12:50.372Z,1.38
2023-05-11T13:15:17.668Z,1.52
2023-05-11T13:17:45.032Z,1.60
2023-05-11T13:20:31.274Z,2.80
2023-05-11T13:23:08.252Z,1.60
2023-05-11T13:25:36.157Z,1.58
2023-05-11T13:28:03.990Z,1.40
2023-05-11T13:30:33.369Z,1.80
2023-05-11T13:33:02.057Z,1.33
2023-05-11T13:35:29.247Z,1.40
2023-05-11T13:37:57.702Z,1.52
2023-05-11T13:40:24.819Z,2.10
2023-05-11T13:42:51.898Z,1.98
2023-05-11T13:45:19.307Z,1.73
2023-05-11T13:47:47.240Z,1.50
2023-05-11T13:50:16.043Z,1.52
2023-05-11T13:52:43.768Z,1.98
2023-05-11T13:55:10.928Z,1.35
2023-05-11T13:57:38.114Z,1.52
2023-05-11T14:00:05.691Z,1.30
2023-05-11T14:02:32.889Z,2.40
2023-05-11T14:05:00.057Z,2.38
2023-05-11T14:07:39.100Z,2.90
2023-05-11T14:10:11.360Z,1.70
2023-05-11T14:12:38.993Z,1.70
2023-05-11T14:15:06.823Z,1.85
2023-05-11T14:17:33.973Z,2.25
2023-05-11T14:20:01.425Z,1.58
2023-05-11T14:22:29.146Z,2.42
2023-05-11T14:24:56.324Z,2.30
2023-05-11T14:27:23.635Z,2.15
2023-05-11T14:29:52.025Z,1.92
2023-05-11T14:32:19.580Z,1.58
2023-05-11T14:34:47.750Z,1.40
2023-05-11T14:37:14.900Z,1.60
2023-05-11T14:39:42.151Z,1.95
2023-05-11T14:42:09.452Z,1.88
2023-05-11T14:44:36.776Z,2.00
2023-05-11T14:47:05.276Z,1.92
2023-05-11T14:49:32.496Z,1.90
2023-05-11T14:51:59.836Z,1.63
2023-05-11T14:54:27.053Z,1.80
2023-05-11T14:56:56.185Z,1.70
2023-05-11T14:59:26.869Z,1.60
2023-05-11T15:01:54.187Z,1.70
2023-05-11T15:04:22.249Z,1.80
2023-05-11T15:06:49.508Z,1.90
2023-05-11T15:09:16.783Z,1.77
2023-05-11T15:11:43.894Z,1.75
2023-05-11T15:14:11.033Z,1.70
2023-05-11T15:16:38.291Z,1.80
2023-05-11T15:19:06.047Z,1.85
2023-05-11T15:21:33.258Z,1.42
2023-05-11T15:24:00.434Z,1.60
2023-05-11T15:26:27.513Z,1.85
2023-05-11T15:28:54.599Z,2.20
2023-05-11T15:31:22.513Z,1.70
2023-05-11T15:33:49.954Z,4.05
2023-05-11T15:36:17.122Z,1.67
2023-05-11T15:38:44.251Z,2.50
2023-05-11T15:41:11.382Z,1.90
2023-05-11T15:43:38.466Z,1.80
2023-05-11T15:46:07.010Z,3.95
2023-05-11T15:48:34.234Z,1.65
2023-05-11T15:51:01.396Z,2.92
2023-05-11T15:53:28.844Z,1.65
2023-05-11T15:55:56.250Z,1.60
2023-05-11T15:58:23.417Z,1.55
2023-05-11T16:00:50.674Z,1.70
2023-05-11T16:03:19.618Z,1.77
2023-05-11T16:05:47.234Z,1.70
2023-05-11T16:08:14.692Z,1.80
2023-05-11T16:10:41.866Z,1.60
2023-05-11T16:13:09.738Z,1.60
2023-05-11T16:15:36.996Z,1.85
2023-05-11T16:18:05.397Z,2.00
2023-05-11T16:20:33.012Z,1.98
2023-05-11T16:23:00.165Z,1.88
2023-05-11T16:25:27.269Z,1.55
2023-05-11T16:27:54.413Z,1.80
2023-05-11T16:30:25.373Z,1.48
2023-05-11T16:32:52.933Z,1.70
2023-05-11T16:35:20.421Z,1.50
2023-05-11T16:37:48.375Z,1.83
2023-05-11T16:40:18.852Z,1.83
2023-05-11T16:42:47.315Z,2.10
2023-05-11T16:45:15.104Z,1.98
2023-05-11T16:47:42.511Z,1.70
2023-05-11T16:50:10.754Z,1.85
2023-05-11T16:52:37.900Z,4.03
2023-05-11T16:55:05.628Z,2.30
2023-05-11T16:57:32.701Z,2.97
2023-05-11T17:00:00.135Z,2.25
2023-05-11T17:02:27.325Z,3.00
2023-05-11T17:04:54.452Z,2.40
2023-05-11T17:07:21.656Z,2.85
2023-05-11T17:09:52.087Z,2.55
2023-05-11T17:12:19.199Z,2.30
2023-05-11T17:14:46.339Z,1.83
2023-05-11T17:17:13.659Z,1.70
2023-05-11T17:19:40.811Z,1.92
2023-05-11T17:22:08.199Z,2.00
2023-05-11T17:24:35.646Z,2.42
2023-05-11T17:27:02.773Z,3.80
2023-05-11T17:29:29.989Z,2.83
2023-05-11T17:31:57.466Z,1.80
2023-05-11T17:34:28.320Z,13.98
2023-05-11T17:36:56.659Z,9.02
2023-05-11T17:39:23.814Z,10.07
2023-05-11T17:41:50.978Z,10.80
2023-05-11T17:44:18.160Z,10.27
2023-05-11T17:46:45.295Z,9.82
2023-05-11T17:49:12.431Z,4.68
2023-05-11T17:51:39.686Z,3.67
2023-05-11T17:54:06.845Z,4.70
2023-05-11T17:56:33.984Z,4.13
2023-05-11T17:59:01.155Z,3.45
2023-05-11T18:01:28.443Z,2.45
2023-05-11T18:03:56.021Z,3.70
2023-05-11T18:06:23.475Z,2.55
2023-05-11T18:08:50.836Z,2.35
2023-05-11T18:11:17.952Z,2.25
2023-05-11T18:13:45.996Z,2.40
2023-05-11T18:16:13.277Z,3.22
2023-05-11T18:18:42.326Z,3.08
2023-05-11T18:21:10.809Z,3.15
2023-05-11T18:23:37.929Z,2.47
2023-05-11T18:26:05.433Z,3.40
2023-05-11T18:28:32.613Z,5.18
2023-05-11T18:30:59.739Z,2.65
2023-05-11T18:33:26.884Z,2.30
2023-05-11T18:35:54.066Z,2.17
2023-05-11T18:38:21.161Z,2.60
2023-05-11T18:40:48.271Z,1.90
2023-05-11T18:43:15.427Z,2.17
2023-05-11T18:45:44.207Z,2.40
2023-05-11T18:48:11.334Z,2.20
2023-05-11T18:50:39.549Z,2.67
2023-05-11T18:53:06.758Z,3.20
2023-05-11T18:55:44.934Z,3.00
2023-05-11T18:58:12.795Z,2.40
2023-05-11T19:00:40.462Z,12.65
2023-05-11T19:03:07.730Z,12.30
2023-05-11T19:05:34.921Z,22.33
2023-05-11T19:08:04.050Z,18.00
2023-05-11T19:10:31.376Z,38.85
2023-05-11T19:12:59.103Z,17.83
2023-05-11T19:15:26.433Z,44.53
2023-05-11T19:17:55.880Z,36.00
2023-05-11T19:20:23.054Z,25.60
2023-05-11T19:22:50.148Z,23.92
2023-05-11T19:25:17.646Z,21.17
2023-05-11T19:27:46.140Z,20.77
2023-05-11T19:30:13.351Z,44.80
2023-05-11T19:32:42.337Z,22.13
2023-05-11T19:35:11.871Z,32.83
2023-05-11T19:37:38.993Z,21.88
2023-05-11T19:40:43.080Z,21.48
2023-05-11T19:42:53.807Z,24.13
2023-05-11T19:45:21.139Z,26.08
2023-05-11T19:47:48.576Z,20.30
2023-05-11T19:50:15.760Z,21.30
2023-05-11T19:52:42.951Z,26.77
2023-05-11T19:55:10.211Z,36.00
2023-05-11T19:57:37.705Z,48.33
2023-05-11T20:00:05.797Z,28.35
2023-05-11T20:02:33.490Z,30.25
2023-05-11T20:05:00.706Z,29.35
2023-05-11T20:07:28.118Z,33.05
2023-05-11T20:09:55.595Z,26.73
2023-05-11T20:12:22.770Z,29.35
2023-05-11T20:14:50.001Z,30.77
2023-05-11T20:17:17.080Z,29.40
2023-05-11T20:19:44.188Z,31.88
2023-05-11T20:22:11.362Z,35.33
2023-05-11T20:24:38.659Z,34.22
2023-05-11T20:27:09.466Z,31.40
2023-05-11T20:29:36.681Z,89.15
2023-05-11T20:32:03.846Z,32.88
2023-05-11T20:34:31.044Z,52.17
2023-05-11T20:36:58.196Z,30.17
2023-05-11T20:39:25.360Z,32.83
2023-05-11T20:41:52.551Z,33.83
2023-05-11T20:44:19.742Z,32.70
2023-05-11T20:46:47.287Z,27.95
2023-05-11T20:49:22.156Z,74.72
2023-05-11T20:51:54.865Z,22.75
2023-05-11T20:54:22.706Z,23.80
2023-05-11T20:56:50.350Z,37.08
2023-05-11T21:01:47.569Z,42.70
2023-05-11T21:04:14.674Z,47.22
2023-05-11T21:06:41.787Z,46.28
2023-05-11T21:09:09.117Z,46.47
2023-05-11T21:11:36.261Z,52.85
2023-05-11T21:14:03.388Z,49.00
2023-05-11T21:16:30.674Z,39.78
2023-05-11T21:18:57.834Z,42.85
2023-05-11T21:21:25.268Z,31.33
2023-05-11T21:23:52.437Z,34.28
2023-05-11T21:26:19.524Z,30.23
2023-05-11T21:28:46.631Z,27.08
2023-05-11T21:31:13.835Z,21.85
2023-05-11T21:33:41.261Z,23.75
2023-05-11T21:36:08.520Z,22.25
2023-05-11T21:38:35.768Z,24.25
2023-05-11T21:41:02.870Z,25.55
2023-05-11T21:43:29.980Z,23.15
2023-05-11T21:45:57.152Z,23.83
2023-05-11T21:48:24.244Z,16.42
2023-05-11T21:50:54.693Z,15.73
2023-05-11T21:53:21.961Z,12.50
2023-05-11T21:55:49.459Z,12.20
2023-05-11T21:58:16.786Z,13.82
2023-05-11T22:00:44.295Z,11.73
2023-05-11T22:03:11.587Z,12.10
2023-05-11T22:05:38.752Z,12.05
2023-05-11T22:08:14.083Z,12.27
2023-05-11T22:10:43.035Z,10.90
2023-05-11T22:13:10.416Z,12.23
2023-05-11T22:15:38.197Z,9.32
2023-05-11T22:18:05.521Z,10.52
2023-05-11T22:20:33.182Z,9.38
2023-05-11T22:23:00.277Z,12.02
2023-05-11T22:25:27.403Z,11.70
2023-05-11T22:27:54.561Z,22.45
2023-05-11T22:30:21.858Z,11.57
2023-05-11T22:32:49.130Z,10.38
2023-05-11T22:35:16.694Z,10.60
2023-05-11T22:37:43.935Z,10.68
2023-05-11T22:40:11.284Z,10.27
2023-05-11T22:42:38.596Z,10.82
2023-05-11T22:45:06.187Z,10.55
2023-05-11T22:47:33.403Z,11.32
2023-05-11T22:50:00.554Z,10.60
2023-05-11T22:52:27.958Z,9.70
2023-05-11T22:54:55.253Z,9.57
2023-05-11T22:57:24.064Z,10.88
2023-05-11T22:59:51.289Z,10.17
2023-05-11T23:02:18.483Z,10.20
2023-05-11T23:04:50.271Z,8.98
2023-05-11T23:07:17.365Z,9.90
2023-05-11T23:09:44.463Z,10.13
2023-05-11T23:12:11.633Z,10.67
2023-05-11T23:14:38.738Z,11.07
2023-05-11T23:17:05.987Z,10.50
2023-05-11T23:19:33.197Z,11.20
2023-05-11T23:22:00.565Z,11.60
2023-05-11T23:24:28.877Z,10.17
2023-05-11T23:26:56.018Z,10.20
2023-05-11T23:29:23.197Z,11.60
2023-05-11T23:31:51.086Z,10.50
2023-05-11T23:34:18.423Z,10.53
2023-05-11T23:36:45.648Z,10.33
2023-05-11T23:39:12.766Z,9.77
2023-05-11T23:41:39.964Z,10.73
2023-05-11T23:44:07.148Z,9.70
2023-05-11T23:46:34.424Z,9.37
2023-05-11T23:49:01.908Z,9.13
2023-05-11T23:51:29.343Z,7.90
2023-05-11T23:53:56.484Z,9.33
2023-05-11T23:56:23.610Z,8.87
2023-05-11T23:58:50.796Z,8.87
